Latest Coastal Weather Observations for Karratha

IDW60701

Issued at 8:22 pm WST Friday 4 September 2015 (issued every 10 minutes, with the page automatically refreshed every 10 minutes)

About coastal observations | Map of coastal stations | Coastal observations for WA | Marine services | Other Formats
Station Details ID: 004083 Name: KARRATHA AERO Lat: -20.71 Lon: 116.77 Height: 5.3 m
Data from the previous 72 hours. | See also: Recent months at Karratha
Date/Time
WST
Temp

°C
Wind Pressure Rain
since 9am
mm
Weather Cloud Vis
km
Sea
Height
m
Swell
Dir
 
Speed
knots
Gust
knots
hPa Trend Height
m
Period
s
Dir
04/08:00pm 22.0 W 13 16 1017.4 - 0.0 - - 10 - - - -
04/07:30pm 22.1 W 11 14 1017.1 - 0.0 - - 10 - - - -
04/07:00pm 22.1 WNW 12 15 1016.9 - 0.0 - - 10 - - - -
04/06:30pm 22.4 W 12 15 1016.6 - 0.0 - - 10 - - - -
04/06:00pm 23.0 W 12 16 1016.2 - 0.0 - - 10 - - - -
04/05:30pm 23.8 WNW 12 15 1015.8 - 0.0 - - 10 - - - -
04/05:00pm 24.6 WNW 11 15 1015.5 - 0.0 - - 10 - - - -
04/04:30pm 25.1 WNW 13 16 1015.4 - 0.0 - - 10 - - - -
04/04:00pm 26.0 WNW 12 15 1015.4 - 0.0 - - 10 - - - -
04/03:30pm 25.9 WNW 13 16 1015.5 - 0.0 - - 10 - - - -
04/03:00pm 26.6 WNW 13 16 1015.6 - 0.0 - - 10 - - - -
04/02:30pm 26.2 WNW 14 18 1015.8 - 0.0 - - 10 - - - -
04/02:00pm 26.3 WNW 14 17 1016.0 - 0.0 - - 10 - - - -
04/01:30pm 26.5 WNW 13 17 1016.2 - 0.0 - - 10 - - - -
04/01:00pm 25.8 WNW 13 17 1016.4 - 0.0 - - 10 - - - -
04/12:30pm 25.8 W 15 18 1016.8 - 0.0 - - 10 - - - -
04/12:00pm 25.7 WNW 13 16 1017.0 - 0.0 - - 10 - - - -
04/11:30am 25.6 WNW 13 16 1017.6 - 0.0 - - 10 - - - -
04/11:00am 25.0 WNW 12 15 1017.9 - 0.0 - - 10 - - - -
04/10:30am 24.3 W 11 13 1018.1 - 0.0 - - 10 - - - -
04/10:00am 23.1 W 10 13 1018.3 - 0.0 - - 10 - - - -
04/09:30am 21.6 W 9 11 1018.3 - 0.0 - - 10 - - - -
04/09:00am 20.4 W 9 11 1018.3 - 0.0 - - 10 - - - -
04/08:30am 19.3 WSW 9 10 1018.2 - 0.0 - - 10 - - - -
04/08:00am 18.7 W 9 11 1017.9 - 0.0 - - 10 - - - -
04/07:30am 18.2 WSW 8 10 1017.7 - 0.0 - - 10 - - - -
04/07:00am 17.4 WSW 5 8 1017.4 - 0.0 - - 10 - - - -
04/06:30am 15.9 WSW 7 8 1017.0 - 0.0 - - 10 - - - -
04/06:00am 16.0 WSW 6 7 1016.9 - 0.0 - - 10 - - - -
04/05:30am 16.0 WSW 7 8 1016.5 - 0.0 - - 10 - - - -
04/05:00am 16.1 WSW 7 9 1016.2 - 0.0 - - 10 - - - -
04/04:30am 16.6 WSW 8 9 1016.2 - 0.0 - - 10 - - - -
04/04:00am 17.2 WSW 11 13 1016.1 - 0.0 - - 10 - - - -
04/03:30am 17.8 WSW 11 13 1016.3 - 0.0 - - 10 - - - -
04/03:00am 18.4 WSW 13 16 1016.4 - 0.0 - - 10 - - - -
04/02:30am 19.1 WSW 13 16 1016.5 - 0.0 - - 10 - - - -
04/02:00am 19.6 WSW 15 19 1016.7 - 0.0 - - 10 - - - -
04/01:30am 19.4 WSW 12 15 1016.9 - 0.0 - - 10 - - - -
04/01:00am 19.6 WSW 12 16 1017.2 - 0.0 - - 10 - - - -
04/12:30am 19.5 WSW 10 13 1017.4 - 0.0 - - 10 - - - -
04/12:00am 19.5 WSW 10 12 1017.5 - 0.0 - - 10 - - - -
 
Date/Time
WST
Temp

°C
Wind Pressure Rain
since 9am
mm
Weather Cloud Vis
km
Sea
Height
m
Swell
Dir
 
Speed
knots
Gust
knots
hPa Trend Height
m
Period
s
Dir
03/11:30pm 19.8 WSW 11 13 1017.7 - 0.0 - - 10 - - - -
03/11:00pm 19.8 WSW 10 11 1017.9 - 0.0 - - 10 - - - -
03/10:30pm 20.5 WSW 12 14 1018.0 - 0.0 - - 10 - - - -
03/10:00pm 20.9 WSW 12 16 1018.0 - 0.0 - - 10 - - - -
03/09:30pm 21.3 WSW 11 14 1018.2 - 0.0 - - 10 - - - -
03/09:00pm 21.5 WSW 10 13 1018.1 - 0.0 - - 10 - - - -
03/08:30pm 21.8 WSW 11 13 1017.9 - 0.0 - - 10 - - - -
03/08:00pm 21.9 W 10 13 1017.6 - 0.0 - - 10 - - - -
03/07:30pm 22.1 W 10 12 1017.4 - 0.0 - - 10 - - - -
03/07:00pm 22.5 W 10 13 1016.9 - 0.0 - - 10 - - - -
03/06:30pm 22.9 WNW 11 13 1016.7 - 0.0 - - 10 - - - -
03/06:00pm 23.4 WNW 10 13 1016.6 - 0.0 - - 10 - - - -
03/05:30pm 24.1 WNW 9 11 1016.4 - 0.0 - - 10 - - - -
03/05:00pm 24.8 WNW 9 12 1016.1 - 0.0 - - 10 - - - -
03/04:30pm 25.5 NW 9 11 1016.0 - 0.0 - - 10 - - - -
03/04:00pm 25.3 WNW 10 13 1016.0 - 0.0 - - 10 - - - -
03/03:30pm 26.0 NW 10 14 1016.0 - 0.0 - - 10 - - - -
03/03:00pm 26.3 N 6 9 1015.9 - 0.0 - - 10 - - - -
03/02:30pm 25.9 NNE 9 11 1016.1 - 0.0 - - 10 - - - -
03/02:00pm 26.7 NE 10 13 1016.2 - 0.0 - - 10 - - - -
03/01:30pm 26.6 NE 11 13 1016.6 - 0.0 - - 10 - - - -
03/01:00pm 26.8 NNE 11 13 1016.7 - 0.0 - - 10 - - - -
03/12:30pm 25.8 NNE 11 14 1016.8 - 0.0 - - 10 - - - -
03/12:00pm 25.7 NNE 11 14 1017.0 - 0.0 - - 10 - - - -
03/11:30am 25.4 NNE 10 12 1017.3 - 0.0 - - 10 - - - -
03/11:00am 25.7 NNE 7 10 1017.6 - 0.0 - - 10 - - - -
03/10:30am 25.1 NE 7 11 1017.9 - 0.0 - - 10 - - - -
03/10:00am 24.3 NE 7 11 1018.1 - 0.0 - - 10 - - - -
03/09:30am 23.2 ENE 7 10 1018.1 - 0.0 - - 10 - - - -
03/09:00am 22.5 ENE 8 10 1017.9 - 0.0 - - 10 - - - -
03/08:30am 21.3 E 6 9 1017.8 - 0.0 - - 10 - - - -
03/08:00am 20.6 ENE 4 6 1017.6 - 0.0 - - 10 - - - -
03/07:30am 19.0 E 1 4 1017.4 - 0.0 - - 10 - - - -
03/07:00am 15.5 ESE 2 3 1017.2 - 0.0 - - 10 - - - -
03/06:30am 14.7 ESE 3 4 1017.0 - 0.0 - - 10 - - - -
03/06:00am 14.9 SE 4 5 1016.5 - 0.0 - - 10 - - - -
03/05:30am 15.6 SSE 4 5 1016.2 - 0.0 - - 10 - - - -
03/05:00am 16.6 S 5 5 1016.0 - 0.0 - - 10 - - - -
03/04:30am 16.7 S 6 6 1015.8 - 0.0 - - 10 - - - -
03/04:00am 16.1 S 5 6 1015.9 - 0.0 - - 10 - - - -
03/03:30am 16.5 S 6 7 1015.9 - 0.0 - - 10 - - - -
03/03:00am 17.0 SSE 7 7 1016.0 - 0.0 - Mostly clear 10 - - - -
03/02:30am 17.1 S 7 8 1016.1 - 0.0 - Partly cloudy 10 - - - -
03/02:00am 16.9 S 7 8 1016.3 - 0.0 - - 10 - - - -
03/01:30am 16.9 CALM 0 0 1016.6 - 0.0 - - 10 - - - -
03/01:00am 16.1 SSW 3 5 1016.8 - 0.0 - - 10 - - - -
03/12:30am 16.1 S 6 6 1017.0 - 0.0 - - 10 - - - -
03/12:00am 16.6 S 7 9 1017.2 - 0.0 - - 10 - - - -
 
Date/Time
WST
Temp

°C
Wind Pressure Rain
since 9am
mm
Weather Cloud Vis
km
Sea
Height
m
Swell
Dir
 
Speed
knots
Gust
knots
hPa Trend Height
m
Period
s
Dir
02/11:30pm 17.2 S 7 8 1017.2 - 0.0 - - 10 - - - -
02/11:00pm 17.5 SSW 3 4 1017.3 - 0.0 - - 10 - - - -
02/10:30pm 18.2 SW 3 5 1017.3 - 0.0 - - 10 - - - -
02/10:00pm 21.4 NW 3 5 1017.5 - 0.0 - - 10 - - - -
02/09:30pm 21.9 NNW 5 7 1017.4 - 0.0 - - 10 - - - -
02/09:00pm 22.1 NNW 6 8 1017.3 - 0.0 - - 10 - - - -
02/08:30pm 22.4 NNW 7 10 1017.4 - 0.0 - - 10 - - - -
02/08:00pm 22.5 N 7 9 1017.1 - 0.0 - - 10 - - - -
02/07:30pm 22.5 N 6 9 1016.6 - 0.0 - - 10 - - - -
02/07:00pm 21.1 NNE 5 7 1016.3 - 0.0 - - 10 - - - -
02/06:30pm 21.7 NE 5 7 1016.1 - 0.0 - - 10 - - - -
02/06:00pm 22.9 NNE 10 13 1015.5 - 0.0 - - 10 - - - -
02/05:30pm 23.6 NNE 11 16 1015.3 - 0.0 - - 10 - - - -
02/05:00pm 24.1 NNE 13 16 1015.1 - 0.0 - - 10 - - - -
02/04:30pm 24.8 NNE 14 20 1014.7 - 0.0 - - 10 - - - -
02/04:00pm 24.9 NE 16 21 1014.5 - 0.0 - - 10 - - - -
02/03:30pm 26.0 NE 14 18 1014.8 - 0.0 - - 10 - - - -
02/03:00pm 25.4 NE 14 18 1015.0 - 0.0 - - 10 - - - -
02/02:30pm 25.6 NE 13 16 1015.1 - 0.0 - - 10 - - - -
02/02:00pm 25.3 NE 14 17 1015.3 - 0.0 - - 10 - - - -
02/01:30pm 26.2 NE 15 19 1015.8 - 0.0 - - 10 - - - -
02/01:00pm 25.9 NE 16 19 1016.1 - 0.0 - - 10 - - - -
02/12:30pm 26.4 ENE 17 19 1016.2 - 0.0 - - 10 - - - -
02/12:00pm 26.4 ENE 19 23 1016.5 - 0.0 - - 10 - - - -
02/11:30am 26.8 ENE 16 21 1016.7 - 0.0 - - 10 - - - -
02/11:00am 27.2 ENE 17 23 1016.9 - 0.0 - - 10 - - - -
02/10:30am 26.2 E 15 18 1017.1 - 0.0 - - 10 - - - -
02/10:00am 25.6 E 16 20 1017.2 - 0.0 - - 10 - - - -
02/09:30am 24.8 E 17 20 1016.7 - 0.0 - - 10 - - - -
02/09:00am 24.2 E 17 21 1016.6 - 0.0 - - 10 - - - -
02/08:30am 22.9 E 14 18 1016.3 - 0.0 - - 10 - - - -
02/08:00am 20.1 ENE 9 12 1016.3 - 0.0 - - 10 - - - -
02/07:30am 19.2 ENE 7 8 1016.0 - 0.0 - - 10 - - - -
02/07:00am 15.5 ESE 5 6 1015.6 - 0.0 - - 10 - - - -
02/06:30am 14.2 SE 6 8 1015.2 - 0.0 - - 10 - - - -
02/06:00am 13.7 SSE 7 7 1014.7 - 0.0 - - 10 - - - -
02/05:30am 14.2 S 7 8 1014.3 - 0.0 - - 10 - - - -
02/05:00am 14.5 S 8 9 1014.2 - 0.0 - - 10 - - - -
02/04:30am 15.4 S 4 5 1014.1 - 0.0 - - 10 - - - -
02/04:00am 15.9 SSW 4 4 1014.0 - 0.0 - - 10 - - - -
02/03:30am 17.2 WSW 4 6 1014.0 - 0.0 - - 10 - - - -
02/03:00am 17.3 WSW 5 6 1014.2 - 0.0 - - 10 - - - -
02/02:30am 17.0 SW 5 7 1014.4 - 0.0 - - 10 - - - -
02/02:00am 17.5 SW 5 6 1014.4 - 0.0 - - 10 - - - -
02/01:30am 18.3 SW 7 8 1014.6 - 0.0 - - 10 - - - -
02/01:00am 21.5 W 9 11 1014.9 - 0.0 - - 10 - - - -
02/12:30am 21.4 W 9 12 1015.0 - 0.0 - - 10 - - - -
02/12:00am 21.2 W 10 12 1015.3 - 0.0 - - 10 - - - -
 
Date/Time
WST
Temp

°C
Wind Pressure Rain
since 9am
mm
Weather Cloud Vis
km
Sea
Height
m
Swell
Dir
 
Speed
knots
Gust
knots
hPa Trend Height
m
Period
s
Dir
01/11:30pm 20.8 W 8 10 1015.4 - 0.0 - - 10 - - - -
01/11:00pm 20.8 W 8 11 1015.6 - 0.0 - - 10 - - - -
01/10:30pm 20.9 W 10 12 1015.6 - 0.0 - - 10 - - - -
01/10:00pm 21.0 WSW 12 15 1015.6 - 0.0 - - 10 - - - -
01/09:30pm 21.3 WSW 13 15 1015.6 - 0.0 - - 10 - - - -
01/09:00pm 21.8 WSW 13 16 1015.5 - 0.0 - - 10 - - - -
01/08:30pm 22.2 WSW 13 15 1015.3 - 0.0 - - 10 - - - -

Other Formats:

Comma delimited format used in spreadsheet applications
http://www.bom.gov.au/fwo/IDW60701/IDW60701.95307.axf

JavaScript Object Notation format (JSON) in row-major order
http://www.bom.gov.au/fwo/IDW60701/IDW60701.95307.json